Terminal Aerodrome Forecast
Issued by NWS

Home | Current Version | Previous Version | Text Only | Print | Product List | Glossary On
Versions: 1 2 3 4 5 6 7 8 9 10 11 12 13 14 15 16 17
000
FTUS43 KDMX 242331
TAFOTM
TAF
KOTM 242331Z 2500/2524 27011G18KT P6SM SCT100
     FM250200 29008KT P6SM FEW120
     FM251500 30012G19KT P6SM SKC=

USA.gov is the U.S. government's official web portal to all federal, state and local government web resources and services.